Summit Lake, Canada
Current Conditions -  °F | °C
As of 7:18 AM on Wednesday 22 Oct 2014 (Local Time) from CYXS Reporting Station
Overcast Overcast  
Wind Chill: 50°   Ceiling: 7000
Heat Index: 50°   Visibility: 9mi
Dew Point: 41°   Wind: 20mph
Humidity: 71%   Direction: 170°S
Pressure: 29.39"   Gusts: NA
Location:  54.28°N, 122.63°W
Report Text: CYXS 221418Z AUTO 17017KT 9SM FEW050 BKN070 OVC100 10/05 A2939 RMK SLP963 DENSITY ALT 2800FT
Loading
Personal Weather Stations






























Interactive Weather Map
Tropical Storm Tracking
New forecast layout! Learn more

10-Day Weather Forecast

Advertisements
Track Severe Weather on mobile